createdAt,value
2016-10-09T00:00:20.743Z,0
2016-10-09T00:01:03.449Z,0
2016-10-09T00:01:46.236Z,0
2016-10-09T00:02:29.610Z,0
2016-10-09T00:03:13.157Z,0
2016-10-09T00:03:55.914Z,0
2016-10-09T00:04:39.174Z,0
2016-10-09T00:05:21.906Z,0
2016-10-09T00:06:05.492Z,0
2016-10-09T00:06:48.232Z,0
2016-10-09T00:07:30.829Z,0
2016-10-09T00:08:15.479Z,0
2016-10-09T00:08:58.068Z,0
2016-10-09T00:09:40.871Z,0
2016-10-09T00:10:23.470Z,0
2016-10-09T00:11:06.455Z,0
2016-10-09T00:11:49.206Z,0
2016-10-09T00:12:31.952Z,0
2016-10-09T00:13:14.677Z,0
2016-10-09T00:13:57.400Z,0
2016-10-09T00:14:40.110Z,0
2016-10-09T00:15:22.818Z,0
2016-10-09T00:16:05.530Z,0
2016-10-09T00:16:48.266Z,0
2016-10-09T00:17:31.043Z,0
2016-10-09T00:18:13.727Z,0
2016-10-09T00:18:56.464Z,0
2016-10-09T00:19:39.155Z,0
2016-10-09T00:20:21.800Z,0
2016-10-09T00:21:04.647Z,0
2016-10-09T00:21:47.328Z,0
2016-10-09T00:22:30.082Z,0
2016-10-09T00:23:12.817Z,0
2016-10-09T00:23:56.141Z,0
2016-10-09T00:24:39.573Z,0
2016-10-09T00:25:22.278Z,0
2016-10-09T00:26:05.521Z,0
2016-10-09T00:26:48.263Z,0
2016-10-09T00:27:31.581Z,0
2016-10-09T00:28:15.029Z,0
2016-10-09T00:28:57.774Z,0
2016-10-09T00:29:40.513Z,0
2016-10-09T00:30:23.227Z,0
2016-10-09T00:31:05.987Z,0
2016-10-09T00:31:48.692Z,0
2016-10-09T00:32:31.358Z,0
2016-10-09T00:33:14.126Z,0
2016-10-09T00:33:56.873Z,0
2016-10-09T00:34:39.542Z,0
2016-10-09T00:35:24.107Z,0
2016-10-09T00:36:07.587Z,0
2016-10-09T00:36:50.347Z,0
2016-10-09T00:37:33.990Z,0
2016-10-09T00:38:16.352Z,0
2016-10-09T00:38:59.120Z,0
2016-10-09T00:39:41.788Z,0
2016-10-09T00:40:24.573Z,0
2016-10-09T00:41:07.909Z,0
2016-10-09T00:41:50.807Z,0
2016-10-09T00:42:33.505Z,0
2016-10-09T00:43:16.232Z,0
2016-10-09T00:43:59.589Z,0
2016-10-09T00:44:42.313Z,0
2016-10-09T00:45:25.714Z,0
2016-10-09T00:46:08.387Z,0
2016-10-09T00:46:51.709Z,0
2016-10-09T00:47:34.433Z,0
2016-10-09T00:48:17.240Z,0
2016-10-09T00:49:00.014Z,0
2016-10-09T00:49:42.753Z,0
2016-10-09T00:50:25.476Z,0
2016-10-09T00:51:08.232Z,0
2016-10-09T00:51:50.974Z,0
2016-10-09T00:52:34.517Z,0
2016-10-09T00:53:17.261Z,0
2016-10-09T00:54:00.628Z,0
2016-10-09T00:54:43.314Z,0
2016-10-09T00:55:27.008Z,0
2016-10-09T00:56:09.719Z,0
2016-10-09T00:56:52.457Z,0
2016-10-09T00:57:35.487Z,0
2016-10-09T00:58:17.922Z,0
2016-10-09T00:59:01.598Z,0
2016-10-09T00:59:44.258Z,0
2016-10-09T01:00:27.051Z,0
2016-10-09T01:01:10.655Z,0
2016-10-09T01:01:55.028Z,0
2016-10-09T01:02:37.758Z,0
2016-10-09T01:03:20.459Z,0
2016-10-09T01:04:03.185Z,0
2016-10-09T01:04:45.971Z,0
2016-10-09T01:05:29.146Z,0
2016-10-09T01:06:11.899Z,0
2016-10-09T01:06:54.570Z,0
2016-10-09T01:07:37.373Z,0
2016-10-09T01:08:20.084Z,0
2016-10-09T01:09:02.799Z,0
2016-10-09T01:09:45.589Z,0
2016-10-09T01:10:29.211Z,0
2016-10-09T01:11:11.801Z,0
2016-10-09T01:11:54.659Z,0
2016-10-09T01:12:37.351Z,0
2016-10-09T01:14:29.993Z,0
2016-10-09T01:15:13.239Z,0
2016-10-09T01:15:56.006Z,0
2016-10-09T01:16:38.770Z,0
2016-10-09T01:17:21.467Z,0
2016-10-09T01:18:04.238Z,0
2016-10-09T01:18:47.639Z,0
2016-10-09T01:19:30.343Z,0
2016-10-09T01:20:13.117Z,0
2016-10-09T01:20:55.858Z,0
2016-10-09T01:21:38.606Z,0
2016-10-09T01:22:21.368Z,0
2016-10-09T01:23:03.898Z,0
2016-10-09T01:23:46.716Z,0
2016-10-09T01:24:29.465Z,0
2016-10-09T01:25:12.003Z,0
2016-10-09T01:25:54.868Z,0
2016-10-09T01:26:37.574Z,0
2016-10-09T01:27:20.330Z,0
2016-10-09T01:28:04.076Z,0
2016-10-09T01:28:46.845Z,0
2016-10-09T01:29:30.137Z,0
2016-10-09T01:30:12.809Z,0
2016-10-09T01:30:56.073Z,0
2016-10-09T01:31:38.919Z,0
2016-10-09T01:32:21.679Z,0
2016-10-09T01:35:02.437Z,0
2016-10-09T01:35:45.203Z,0
2016-10-09T01:36:27.896Z,0
2016-10-09T01:37:10.602Z,0
2016-10-09T01:37:53.339Z,0
2016-10-09T01:38:36.033Z,0
2016-10-09T01:39:19.559Z,0
2016-10-09T01:40:44.981Z,0
2016-10-09T01:42:26.130Z,0
2016-10-09T01:43:51.799Z,0
2016-10-09T01:45:17.088Z,0
2016-10-09T01:46:42.289Z,0
2016-10-09T01:47:25.024Z,0
2016-10-09T01:48:07.667Z,0
2016-10-09T01:48:50.414Z,0
2016-10-09T01:49:33.127Z,0
2016-10-09T01:50:15.877Z,0
2016-10-09T01:50:58.581Z,0
2016-10-09T01:51:41.268Z,0
2016-10-09T01:52:24.857Z,0
2016-10-09T01:53:49.963Z,0
2016-10-09T01:54:32.563Z,0
2016-10-09T01:55:15.118Z,0
2016-10-09T01:55:57.722Z,0
2016-10-09T01:56:40.514Z,0
2016-10-09T01:57:23.104Z,0
2016-10-09T01:58:06.038Z,0
2016-10-09T01:58:48.568Z,0
2016-10-09T01:59:31.147Z,0
2016-10-09T02:00:13.690Z,0
2016-10-09T02:00:56.318Z,0
2016-10-09T02:01:39.042Z,0
2016-10-09T02:02:21.716Z,0
2016-10-09T02:03:04.412Z,0
2016-10-09T02:03:47.089Z,0
2016-10-09T02:04:29.734Z,0
2016-10-09T02:05:12.356Z,0
2016-10-09T02:05:55.010Z,0
2016-10-09T02:06:37.608Z,0
2016-10-09T02:07:20.254Z,0
2016-10-09T02:08:02.924Z,0
2016-10-09T02:08:45.323Z,0
2016-10-09T02:09:28.194Z,0
2016-10-09T02:10:10.765Z,0
2016-10-09T02:11:32.516Z,0
2016-10-09T02:12:15.151Z,0
2016-10-09T02:12:57.769Z,0
2016-10-09T02:13:40.429Z,0
2016-10-09T02:14:22.980Z,0
2016-10-09T02:15:05.567Z,0
2016-10-09T02:15:48.130Z,0
2016-10-09T02:16:30.764Z,0
2016-10-09T02:17:13.387Z,0
2016-10-09T02:17:56.046Z,0
2016-10-09T02:18:38.692Z,0
2016-10-09T02:19:21.336Z,0
2016-10-09T02:20:03.958Z,0
2016-10-09T02:20:46.431Z,0
2016-10-09T02:21:29.167Z,0
2016-10-09T02:22:11.724Z,0
2016-10-09T02:22:54.256Z,0
2016-10-09T02:23:36.821Z,0
2016-10-09T02:24:19.413Z,0
2016-10-09T02:25:02.012Z,0
2016-10-09T02:25:44.566Z,0
2016-10-09T02:26:27.200Z,0
2016-10-09T02:27:20.160Z,0
2016-10-09T02:29:35.503Z,0
2016-10-09T02:30:18.797Z,0
2016-10-09T02:31:01.542Z,0
2016-10-09T02:31:44.224Z,0
2016-10-09T02:32:26.963Z,0
2016-10-09T02:33:15.357Z,0
2016-10-09T02:33:58.054Z,0
2016-10-09T02:34:40.742Z,0
2016-10-09T02:35:23.354Z,0
2016-10-09T02:36:06.317Z,0
2016-10-09T02:37:32.249Z,0
2016-10-09T02:38:57.413Z,0
2016-10-09T02:39:40.039Z,0
2016-10-09T02:41:23.335Z,0
2016-10-09T02:42:05.955Z,0
2016-10-09T02:42:48.507Z,0
2016-10-09T02:43:31.024Z,0
2016-10-09T02:44:13.696Z,0
2016-10-09T02:45:00.292Z,0
2016-10-09T02:45:47.865Z,0
2016-10-09T02:46:39.425Z,0
2016-10-09T02:47:29.134Z,0
2016-10-09T02:48:11.703Z,0
2016-10-09T02:48:56.759Z,0
2016-10-09T02:49:39.346Z,0
2016-10-09T02:50:25.637Z,0
2016-10-09T02:51:12.440Z,0
2016-10-09T02:51:55.101Z,0
2016-10-09T02:52:37.764Z,0
2016-10-09T02:53:20.233Z,0
2016-10-09T02:55:02.086Z,0
2016-10-09T02:55:44.848Z,0
2016-10-09T02:56:29.465Z,0
2016-10-09T02:57:12.127Z,0
2016-10-09T02:57:54.693Z,0
2016-10-09T02:58:37.921Z,0
2016-10-09T02:59:22.646Z,0
2016-10-09T03:00:05.544Z,0
2016-10-09T03:00:50.414Z,0
2016-10-09T03:01:35.473Z,0
2016-10-09T03:02:18.069Z,0
2016-10-09T03:03:00.862Z,0
2016-10-09T03:03:43.555Z,0
2016-10-09T03:04:26.312Z,0
2016-10-09T03:05:08.954Z,0
2016-10-09T03:05:51.656Z,0
2016-10-09T03:06:34.842Z,0
2016-10-09T03:07:17.027Z,0
2016-10-09T03:07:59.674Z,0
2016-10-09T03:08:42.270Z,0
2016-10-09T03:09:25.042Z,0
2016-10-09T03:10:07.895Z,0
2016-10-09T03:10:51.520Z,0
2016-10-09T03:11:38.337Z,0
2016-10-09T03:12:21.069Z,0
2016-10-09T03:13:04.734Z,0
2016-10-09T03:13:48.230Z,0
2016-10-09T03:14:34.772Z,0
2016-10-09T03:15:17.749Z,0
2016-10-09T03:16:00.880Z,0
2016-10-09T03:16:43.673Z,0
2016-10-09T03:17:26.436Z,0
2016-10-09T03:18:09.229Z,0
2016-10-09T03:18:51.764Z,0
2016-10-09T03:19:34.626Z,0
2016-10-09T03:20:17.326Z,0
2016-10-09T03:21:00.154Z,0
2016-10-09T03:21:42.670Z,0
2016-10-09T03:22:25.570Z,0
2016-10-09T03:23:08.246Z,0
2016-10-09T03:23:50.906Z,0
2016-10-09T03:24:33.663Z,0
2016-10-09T03:25:16.371Z,0
2016-10-09T03:25:59.036Z,0
2016-10-09T03:26:41.718Z,0
2016-10-09T03:27:24.401Z,0
2016-10-09T03:28:07.061Z,0
2016-10-09T03:28:49.719Z,0
2016-10-09T03:29:32.278Z,0
2016-10-09T03:30:15.150Z,0
2016-10-09T03:30:57.848Z,0
2016-10-09T03:31:40.525Z,0
2016-10-09T03:32:23.171Z,0
2016-10-09T03:33:05.812Z,0
2016-10-09T03:33:48.636Z,0
2016-10-09T03:34:31.268Z,0
2016-10-09T03:35:13.683Z,0
2016-10-09T03:35:56.601Z,0
2016-10-09T03:37:41.510Z,0
2016-10-09T03:38:24.498Z,0
2016-10-09T03:39:07.311Z,0
2016-10-09T03:39:49.833Z,0
2016-10-09T03:40:32.824Z,0
2016-10-09T03:41:18.350Z,0
2016-10-09T03:42:02.665Z,0
2016-10-09T03:42:48.632Z,0
2016-10-09T03:43:31.311Z,0
2016-10-09T03:44:16.588Z,0
2016-10-09T03:45:03.656Z,0
2016-10-09T03:45:46.446Z,0
2016-10-09T03:46:29.070Z,0
2016-10-09T03:47:11.713Z,0
2016-10-09T03:47:54.585Z,0
2016-10-09T03:48:40.140Z,0
2016-10-09T03:49:25.985Z,0
2016-10-09T03:50:08.625Z,0
2016-10-09T03:50:51.208Z,0
2016-10-09T03:51:34.926Z,0
2016-10-09T03:52:17.576Z,0
2016-10-09T03:53:00.262Z,0
2016-10-09T03:53:42.998Z,0
2016-10-09T03:54:25.611Z,0
2016-10-09T03:55:08.338Z,0
2016-10-09T03:55:50.970Z,0
2016-10-09T03:56:33.591Z,0
2016-10-09T03:57:16.233Z,0
2016-10-09T03:57:58.873Z,0
2016-10-09T03:58:41.541Z,0
2016-10-09T03:59:24.215Z,0
2016-10-09T04:00:06.876Z,0
2016-10-09T04:00:49.498Z,0
2016-10-09T04:01:32.095Z,0
2016-10-09T04:02:14.711Z,0
2016-10-09T04:02:57.448Z,0
2016-10-09T04:03:40.136Z,0
2016-10-09T04:04:22.733Z,0
2016-10-09T04:05:05.390Z,0
2016-10-09T04:05:48.061Z,0
2016-10-09T04:06:30.668Z,0
2016-10-09T04:07:13.378Z,0
2016-10-09T04:07:55.983Z,0
2016-10-09T04:08:38.730Z,0
2016-10-09T04:09:21.333Z,0
2016-10-09T04:10:03.949Z,0
2016-10-09T04:10:46.595Z,0
2016-10-09T04:11:29.204Z,0
2016-10-09T04:12:11.826Z,0
2016-10-09T04:12:54.572Z,0
2016-10-09T04:13:37.220Z,0
2016-10-09T04:14:19.843Z,0
2016-10-09T04:15:05.512Z,0
2016-10-09T04:15:48.152Z,0
2016-10-09T04:16:30.826Z,0
2016-10-09T04:17:13.445Z,0
2016-10-09T04:17:56.025Z,0
2016-10-09T04:18:38.427Z,0
2016-10-09T04:19:21.233Z,0
2016-10-09T04:20:04.247Z,0
2016-10-09T04:20:47.008Z,0
2016-10-09T04:21:29.751Z,0
2016-10-09T04:22:12.346Z,0
2016-10-09T04:22:54.976Z,0
2016-10-09T04:23:37.431Z,0
2016-10-09T04:24:20.218Z,0
2016-10-09T04:25:02.812Z,0
2016-10-09T04:25:45.875Z,0
2016-10-09T04:26:29.684Z,0
2016-10-09T04:27:12.629Z,0
2016-10-09T04:27:55.197Z,0
2016-10-09T04:28:37.876Z,0
2016-10-09T04:29:20.449Z,0
2016-10-09T04:30:03.101Z,0
2016-10-09T04:30:45.678Z,0
2016-10-09T04:31:28.163Z,0
2016-10-09T04:32:10.945Z,0
2016-10-09T04:32:53.708Z,0
2016-10-09T04:33:36.461Z,0
2016-10-09T04:34:19.031Z,0
2016-10-09T04:35:01.769Z,0
2016-10-09T04:35:44.410Z,0
2016-10-09T04:36:27.167Z,0
2016-10-09T04:37:09.783Z,0
2016-10-09T04:37:52.403Z,0
2016-10-09T04:38:35.061Z,0
2016-10-09T04:39:17.682Z,0
2016-10-09T04:40:00.263Z,0
2016-10-09T04:40:42.945Z,0
2016-10-09T04:41:25.505Z,0
2016-10-09T04:42:08.217Z,0
2016-10-09T04:42:51.360Z,0
2016-10-09T04:43:33.964Z,0
2016-10-09T04:44:16.639Z,0
2016-10-09T04:44:59.299Z,0
2016-10-09T04:45:41.886Z,0
2016-10-09T04:46:24.471Z,0
2016-10-09T04:47:07.753Z,0
2016-10-09T04:47:50.333Z,0
2016-10-09T04:48:33.197Z,0
2016-10-09T04:49:15.817Z,0
2016-10-09T04:49:58.520Z,0
2016-10-09T04:50:41.106Z,0
2016-10-09T04:51:23.678Z,0
2016-10-09T04:52:06.206Z,0
2016-10-09T04:52:48.802Z,0
2016-10-09T04:53:31.401Z,0
2016-10-09T04:54:13.983Z,0
2016-10-09T04:54:56.488Z,0
2016-10-09T04:55:39.312Z,0
2016-10-09T04:56:21.929Z,0
2016-10-09T04:57:04.525Z,0
2016-10-09T04:57:47.071Z,0
2016-10-09T04:58:31.785Z,0
2016-10-09T04:59:14.433Z,0
2016-10-09T04:59:57.089Z,0
2016-10-09T05:00:39.711Z,0
2016-10-09T05:01:22.277Z,0
2016-10-09T05:02:04.951Z,0
2016-10-09T05:02:47.429Z,0
2016-10-09T05:03:30.156Z,0
2016-10-09T05:04:12.802Z,0
2016-10-09T05:04:55.369Z,0
2016-10-09T05:05:38.026Z,0
2016-10-09T05:06:20.527Z,0
2016-10-09T05:07:03.265Z,0
2016-10-09T05:07:45.859Z,0
2016-10-09T05:08:28.453Z,0
2016-10-09T05:09:11.089Z,0
2016-10-09T05:09:53.657Z,0
2016-10-09T05:10:36.290Z,0
2016-10-09T05:11:18.865Z,0
2016-10-09T05:12:01.412Z,0
2016-10-09T05:12:44.111Z,0
2016-10-09T05:13:26.682Z,0
2016-10-09T05:14:09.276Z,0
2016-10-09T05:14:51.891Z,0
2016-10-09T05:15:34.847Z,0
2016-10-09T05:16:17.478Z,0
2016-10-09T05:17:00.022Z,0
2016-10-09T05:17:42.613Z,0
2016-10-09T05:18:25.102Z,0
2016-10-09T05:19:07.892Z,0
2016-10-09T05:19:50.463Z,0
2016-10-09T05:20:33.066Z,0
2016-10-09T05:21:15.719Z,0
2016-10-09T05:21:58.348Z,0
2016-10-09T05:22:40.805Z,0
2016-10-09T05:23:23.582Z,0
2016-10-09T05:24:06.133Z,0
2016-10-09T05:24:48.718Z,0
2016-10-09T05:25:31.302Z,0
2016-10-09T05:26:13.856Z,0
2016-10-09T05:26:56.496Z,0
2016-10-09T05:27:38.987Z,0
2016-10-09T05:28:21.701Z,0
2016-10-09T05:29:04.438Z,0
2016-10-09T05:29:47.404Z,0
2016-10-09T05:30:30.299Z,0
2016-10-09T05:31:12.916Z,0
2016-10-09T05:31:55.451Z,0
2016-10-09T05:32:38.082Z,0
2016-10-09T05:33:21.078Z,0
2016-10-09T05:34:03.716Z,0
2016-10-09T05:34:46.270Z,0
2016-10-09T05:35:28.923Z,0
2016-10-09T05:36:11.547Z,0
2016-10-09T05:36:54.144Z,0
2016-10-09T05:37:36.741Z,0
2016-10-09T05:38:19.412Z,0
2016-10-09T05:39:01.974Z,0
2016-10-09T05:39:44.611Z,0
2016-10-09T05:40:27.366Z,0
2016-10-09T05:41:09.974Z,0
2016-10-09T05:41:52.610Z,0
2016-10-09T05:42:35.231Z,0
2016-10-09T05:43:17.874Z,0
2016-10-09T05:44:00.515Z,0
2016-10-09T05:44:43.149Z,0
2016-10-09T05:45:28.331Z,0
2016-10-09T05:46:10.971Z,0
2016-10-09T05:46:53.520Z,0
2016-10-09T05:47:36.095Z,0
2016-10-09T05:48:18.707Z,0
2016-10-09T05:49:01.045Z,0
2016-10-09T05:49:43.745Z,0
2016-10-09T05:50:26.392Z,0
2016-10-09T05:51:10.082Z,0
2016-10-09T05:51:54.305Z,0
2016-10-09T05:52:43.780Z,0
2016-10-09T05:53:40.813Z,0
2016-10-09T05:54:55.023Z,0
2016-10-09T05:56:09.359Z,0
2016-10-09T05:56:53.918Z,0
2016-10-09T05:57:36.462Z,0
2016-10-09T05:58:19.070Z,0
2016-10-09T05:59:01.632Z,0
2016-10-09T05:59:44.267Z,0
2016-10-09T06:00:26.885Z,0
2016-10-09T06:01:09.478Z,0
2016-10-09T06:01:52.087Z,0
2016-10-09T06:02:34.667Z,0
2016-10-09T06:03:17.257Z,0
2016-10-09T06:03:59.858Z,0
2016-10-09T06:04:42.479Z,0
2016-10-09T06:05:25.077Z,0
2016-10-09T06:06:08.012Z,0
2016-10-09T06:06:50.314Z,0
2016-10-09T06:07:32.915Z,0
2016-10-09T06:08:15.519Z,0
2016-10-09T06:08:58.237Z,0
2016-10-09T06:09:40.857Z,0
2016-10-09T06:10:23.520Z,0
2016-10-09T06:11:06.126Z,0
2016-10-09T06:11:48.756Z,0
2016-10-09T06:12:31.350Z,0
2016-10-09T06:13:14.012Z,0
2016-10-09T06:13:56.663Z,0
2016-10-09T06:14:39.244Z,0
2016-10-09T06:15:21.814Z,0
2016-10-09T06:16:04.304Z,0
2016-10-09T06:16:47.035Z,0
2016-10-09T06:17:29.634Z,0
2016-10-09T06:18:12.329Z,0
2016-10-09T06:18:55.021Z,0
2016-10-09T06:19:37.656Z,0
2016-10-09T06:20:20.240Z,0
2016-10-09T06:21:02.880Z,0
2016-10-09T06:21:45.472Z,0
2016-10-09T06:22:28.063Z,0
2016-10-09T06:23:10.690Z,0
2016-10-09T06:23:53.092Z,0
2016-10-09T06:24:35.920Z,0
2016-10-09T06:25:18.495Z,0
2016-10-09T06:26:01.099Z,0
2016-10-09T06:26:43.758Z,0
2016-10-09T06:27:26.290Z,0
2016-10-09T06:28:08.903Z,0
2016-10-09T06:28:51.552Z,0
2016-10-09T06:29:34.202Z,0
2016-10-09T06:30:16.745Z,0
2016-10-09T06:30:59.480Z,0
2016-10-09T06:31:42.132Z,0
2016-10-09T06:32:24.769Z,0
2016-10-09T06:33:07.406Z,0
2016-10-09T06:33:50.081Z,0
2016-10-09T06:34:32.659Z,0
2016-10-09T06:35:15.191Z,0
2016-10-09T06:35:57.882Z,0
2016-10-09T06:36:40.548Z,0
2016-10-09T06:37:23.154Z,0
2016-10-09T06:38:05.792Z,0
2016-10-09T06:38:48.444Z,0
2016-10-09T06:39:31.091Z,0
2016-10-09T06:40:13.719Z,0
2016-10-09T06:40:56.317Z,0
2016-10-09T06:41:38.955Z,0
2016-10-09T06:42:21.564Z,0
2016-10-09T06:43:04.075Z,0
2016-10-09T06:43:46.799Z,0
2016-10-09T06:44:29.274Z,0
2016-10-09T06:45:12.005Z,0
2016-10-09T06:45:54.616Z,0
2016-10-09T06:46:37.170Z,0
2016-10-09T06:47:19.744Z,0
2016-10-09T06:48:02.335Z,0
2016-10-09T06:48:44.935Z,0
2016-10-09T06:49:27.471Z,0
2016-10-09T06:50:10.231Z,0
2016-10-09T06:50:52.839Z,0
2016-10-09T06:51:35.461Z,0
2016-10-09T06:52:18.054Z,0
2016-10-09T06:53:00.652Z,0
2016-10-09T06:53:43.279Z,0
2016-10-09T06:54:25.872Z,0
2016-10-09T06:55:08.516Z,0
2016-10-09T06:55:51.063Z,0
2016-10-09T06:56:33.740Z,0
2016-10-09T06:57:16.336Z,0
2016-10-09T06:57:58.889Z,0
2016-10-09T06:58:41.510Z,0
2016-10-09T06:59:24.140Z,0
2016-10-09T07:00:06.723Z,0
2016-10-09T07:00:49.353Z,0
2016-10-09T07:01:31.966Z,0
2016-10-09T07:02:14.597Z,0
2016-10-09T07:02:57.268Z,0
2016-10-09T07:03:39.860Z,0
2016-10-09T07:04:22.458Z,0
2016-10-09T07:05:05.098Z,0
2016-10-09T07:05:47.727Z,0
2016-10-09T07:06:30.240Z,0
2016-10-09T07:07:12.983Z,0
2016-10-09T07:07:55.609Z,0
2016-10-09T07:08:38.213Z,0
2016-10-09T07:09:20.821Z,0
2016-10-09T07:10:03.454Z,0
2016-10-09T07:10:45.937Z,0
2016-10-09T07:11:28.637Z,0
2016-10-09T07:12:11.278Z,0
2016-10-09T07:12:53.898Z,0
2016-10-09T07:13:36.571Z,0
2016-10-09T07:14:19.206Z,0
2016-10-09T07:15:01.628Z,0
2016-10-09T07:15:44.358Z,0
2016-10-09T07:16:26.935Z,0
2016-10-09T07:17:09.574Z,0
2016-10-09T07:17:52.175Z,0
2016-10-09T07:18:34.741Z,0
2016-10-09T07:19:17.321Z,0
2016-10-09T07:19:59.902Z,0
2016-10-09T07:20:42.424Z,0
2016-10-09T07:21:25.124Z,0
2016-10-09T07:22:07.704Z,0
2016-10-09T07:22:50.255Z,0
2016-10-09T07:23:32.921Z,0
2016-10-09T07:24:15.525Z,0
2016-10-09T07:24:58.158Z,0
2016-10-09T07:25:40.770Z,0
2016-10-09T07:26:23.386Z,0
2016-10-09T07:27:05.997Z,0
2016-10-09T07:27:48.530Z,0
2016-10-09T07:28:31.208Z,0
2016-10-09T07:29:13.842Z,0
2016-10-09T07:29:56.419Z,0
2016-10-09T07:30:38.980Z,0
2016-10-09T07:31:21.506Z,0
2016-10-09T07:32:04.249Z,0
2016-10-09T07:32:46.786Z,0
2016-10-09T07:33:29.422Z,0
2016-10-09T07:34:12.040Z,0
2016-10-09T07:34:54.694Z,0
2016-10-09T07:35:37.747Z,0
2016-10-09T07:36:20.340Z,0
2016-10-09T07:37:02.945Z,0
2016-10-09T07:37:45.564Z,0
2016-10-09T07:38:28.209Z,0
2016-10-09T07:39:10.783Z,0
2016-10-09T07:39:53.384Z,0
2016-10-09T07:40:35.961Z,0
2016-10-09T07:41:18.398Z,0
2016-10-09T07:42:01.180Z,0
2016-10-09T07:42:43.762Z,0
2016-10-09T07:43:26.382Z,0
2016-10-09T07:44:08.974Z,0
2016-10-09T07:44:51.612Z,0
2016-10-09T07:45:34.213Z,0
2016-10-09T07:46:16.877Z,0
2016-10-09T07:46:59.487Z,0
2016-10-09T07:47:42.086Z,0
2016-10-09T07:48:24.722Z,0
2016-10-09T07:49:07.181Z,0
2016-10-09T07:49:49.952Z,0
2016-10-09T07:50:32.548Z,0
2016-10-09T07:51:15.086Z,0
2016-10-09T07:51:57.717Z,0
2016-10-09T07:52:40.301Z,0
2016-10-09T07:53:22.926Z,0
2016-10-09T07:54:05.542Z,0
2016-10-09T07:54:48.125Z,0
2016-10-09T07:55:30.773Z,0
2016-10-09T07:56:13.307Z,0
2016-10-09T07:56:55.876Z,0
2016-10-09T07:57:38.514Z,0
2016-10-09T07:58:21.127Z,0
2016-10-09T07:59:03.763Z,0
2016-10-09T07:59:46.328Z,0
2016-10-09T08:00:28.919Z,0
2016-10-09T08:01:11.506Z,0
2016-10-09T08:01:54.140Z,0
2016-10-09T08:02:37.049Z,0
2016-10-09T08:03:19.368Z,0
2016-10-09T08:04:01.975Z,0
2016-10-09T08:04:44.586Z,0
2016-10-09T08:05:27.182Z,0
2016-10-09T08:06:09.798Z,0
2016-10-09T08:06:52.412Z,0
2016-10-09T08:07:35.012Z,0
2016-10-09T08:08:17.565Z,0
2016-10-09T08:09:00.181Z,0
2016-10-09T08:09:42.759Z,0
2016-10-09T08:10:25.398Z,0
2016-10-09T08:11:07.954Z,0
2016-10-09T08:11:50.530Z,0
2016-10-09T08:12:33.053Z,0
2016-10-09T08:13:15.800Z,0
2016-10-09T08:13:58.383Z,0
2016-10-09T08:14:40.950Z,0
2016-10-09T08:15:23.599Z,0
2016-10-09T08:16:06.183Z,0
2016-10-09T08:16:48.633Z,0
2016-10-09T08:17:31.414Z,0
2016-10-09T08:18:14.070Z,0
2016-10-09T08:18:56.685Z,0
2016-10-09T08:19:39.258Z,0
2016-10-09T08:20:21.906Z,0
2016-10-09T08:21:04.532Z,0
2016-10-09T08:21:47.084Z,0
2016-10-09T08:22:29.652Z,4
2016-10-09T08:23:12.241Z,0
2016-10-09T08:23:54.864Z,0
2016-10-09T08:24:37.465Z,4
2016-10-09T08:25:20.129Z,0
2016-10-09T08:26:02.764Z,4
2016-10-09T08:26:45.368Z,4
2016-10-09T08:27:27.935Z,8
2016-10-09T08:28:10.545Z,8
2016-10-09T08:28:53.144Z,8
2016-10-09T08:29:35.750Z,8
2016-10-09T08:30:18.357Z,12
2016-10-09T08:31:00.978Z,16
2016-10-09T08:31:43.583Z,16
2016-10-09T08:32:26.168Z,20
2016-10-09T08:33:08.803Z,24
2016-10-09T08:33:51.432Z,28
2016-10-09T08:34:33.978Z,32
2016-10-09T08:35:16.634Z,32
2016-10-09T08:35:59.239Z,40
2016-10-09T08:36:41.900Z,48
2016-10-09T08:37:24.516Z,52
2016-10-09T08:38:07.123Z,56
2016-10-09T08:38:49.754Z,60
2016-10-09T08:39:32.374Z,68
2016-10-09T08:40:14.979Z,76
2016-10-09T08:40:57.617Z,80
2016-10-09T08:41:40.229Z,88
2016-10-09T08:42:22.852Z,96
2016-10-09T08:43:05.415Z,104
2016-10-09T08:43:48.053Z,112
2016-10-09T08:44:30.681Z,120
2016-10-09T08:45:13.293Z,128
2016-10-09T08:45:55.876Z,136
2016-10-09T08:46:38.494Z,148
2016-10-09T08:47:21.109Z,152
2016-10-09T08:48:03.790Z,164
2016-10-09T08:48:46.391Z,172
2016-10-09T08:49:28.991Z,180
2016-10-09T08:50:11.487Z,192
2016-10-09T08:50:54.183Z,200
2016-10-09T08:51:36.805Z,212
2016-10-09T08:52:19.360Z,224
2016-10-09T08:53:02.009Z,236
2016-10-09T08:53:44.478Z,244
2016-10-09T08:54:27.255Z,256
2016-10-09T08:55:09.820Z,260
2016-10-09T08:55:52.465Z,272
2016-10-09T08:56:35.043Z,280
2016-10-09T08:57:17.619Z,292
2016-10-09T08:58:00.073Z,300
2016-10-09T08:58:42.884Z,312
2016-10-09T08:59:25.374Z,320
2016-10-09T09:00:07.866Z,332
2016-10-09T09:00:50.597Z,340
2016-10-09T09:01:33.173Z,356
2016-10-09T09:02:15.837Z,364
2016-10-09T09:02:58.371Z,372
2016-10-09T09:03:40.955Z,380
2016-10-09T09:04:23.556Z,392
2016-10-09T09:05:06.277Z,400
2016-10-09T09:05:48.910Z,408
2016-10-09T09:06:31.530Z,416
2016-10-09T09:07:14.188Z,428
2016-10-09T09:07:56.563Z,440
2016-10-09T09:08:39.319Z,448
2016-10-09T09:09:21.907Z,456
2016-10-09T09:10:04.588Z,464
2016-10-09T09:10:47.225Z,468
2016-10-09T09:11:29.836Z,476
2016-10-09T09:12:12.437Z,484
2016-10-09T09:12:54.955Z,456
2016-10-09T09:13:37.571Z,468
2016-10-09T09:14:20.143Z,512
2016-10-09T09:15:02.797Z,508
2016-10-09T09:15:45.394Z,528
2016-10-09T09:16:27.943Z,536
2016-10-09T09:17:10.541Z,540
2016-10-09T09:17:53.192Z,560
2016-10-09T09:18:35.639Z,560
2016-10-09T09:19:18.419Z,548
2016-10-09T09:20:01.030Z,592
2016-10-09T09:20:43.617Z,620
2016-10-09T09:21:26.179Z,624
2016-10-09T09:22:08.776Z,612
2016-10-09T09:22:51.399Z,636
2016-10-09T09:23:33.975Z,700
2016-10-09T09:24:16.516Z,708
2016-10-09T09:24:59.133Z,792
2016-10-09T09:25:41.689Z,764
2016-10-09T09:26:24.277Z,704
2016-10-09T09:27:06.723Z,716
2016-10-09T09:27:49.432Z,780
2016-10-09T09:28:32.062Z,824
2016-10-09T09:29:14.671Z,828
2016-10-09T09:29:57.251Z,844
2016-10-09T09:30:39.719Z,904
2016-10-09T09:31:22.418Z,876
2016-10-09T09:32:04.991Z,820
2016-10-09T09:32:47.623Z,884
2016-10-09T09:33:30.240Z,852
2016-10-09T09:34:12.847Z,872
2016-10-09T09:34:55.407Z,980
2016-10-09T09:35:38.061Z,1032
2016-10-09T09:36:20.615Z,1004
2016-10-09T09:37:03.197Z,980
2016-10-09T09:37:45.706Z,936
2016-10-09T09:38:28.417Z,872
2016-10-09T09:39:11.027Z,844
2016-10-09T09:39:53.621Z,1020
2016-10-09T09:40:36.166Z,1212
2016-10-09T09:41:18.770Z,1140
2016-10-09T09:45:23.665Z,848
2016-10-09T09:46:06.258Z,844
2016-10-09T09:46:48.913Z,848
2016-10-09T09:47:31.498Z,840
2016-10-09T09:48:56.514Z,852
2016-10-09T09:49:39.119Z,864
2016-10-09T09:51:04.030Z,872
2016-10-09T09:53:27.428Z,920
2016-10-09T09:55:08.265Z,916
2016-10-09T09:55:50.843Z,900
2016-10-09T09:57:15.773Z,872
2016-10-09T09:58:40.600Z,1004
2016-10-09T09:59:23.170Z,976
2016-10-09T10:01:04.606Z,940
2016-10-09T10:01:47.192Z,952
2016-10-09T10:02:29.799Z,968
2016-10-09T10:03:54.787Z,1068
2016-10-09T10:05:19.647Z,1052
2016-10-09T10:06:02.246Z,1100
2016-10-09T10:06:44.918Z,1368
2016-10-09T10:07:27.563Z,1428
2016-10-09T10:08:10.162Z,1288
2016-10-09T10:08:52.775Z,1308
2016-10-09T10:09:35.380Z,1264
2016-10-09T10:10:17.987Z,1264
2016-10-09T10:11:00.578Z,1364
2016-10-09T10:11:43.067Z,1348
2016-10-09T10:12:25.663Z,1356
2016-10-09T10:13:08.457Z,1388
2016-10-09T10:13:50.859Z,1376
2016-10-09T10:14:33.574Z,1288
2016-10-09T10:15:16.273Z,1168
2016-10-09T10:15:58.938Z,1124
2016-10-09T10:16:41.585Z,1200
2016-10-09T10:17:24.176Z,1540
2016-10-09T10:18:06.789Z,1656
2016-10-09T10:18:49.373Z,1480
2016-10-09T10:19:31.992Z,1488
2016-10-09T10:20:14.589Z,1472
2016-10-09T10:20:57.217Z,1244
2016-10-09T10:21:39.902Z,1148
2016-10-09T10:22:22.454Z,1232
2016-10-09T10:23:05.142Z,1196
2016-10-09T10:23:47.707Z,1108
2016-10-09T10:24:30.259Z,1072
2016-10-09T10:25:12.828Z,1128
2016-10-09T10:25:55.348Z,1324
2016-10-09T10:26:38.061Z,1456
2016-10-09T10:27:20.665Z,1352
2016-10-09T10:28:03.271Z,1360
2016-10-09T10:28:45.902Z,1408
2016-10-09T10:29:28.502Z,1328
2016-10-09T10:30:11.117Z,1324
2016-10-09T10:30:54.352Z,1240
2016-10-09T10:31:36.954Z,1376
2016-10-09T10:32:19.648Z,1412
2016-10-09T10:33:02.262Z,1508
2016-10-09T10:33:44.747Z,1604
2016-10-09T10:34:27.442Z,1568
2016-10-09T10:35:10.084Z,1444
2016-10-09T10:35:52.667Z,1448
2016-10-09T10:36:35.205Z,1516
2016-10-09T10:37:18.364Z,1512
2016-10-09T10:38:00.239Z,1532
2016-10-09T10:38:42.935Z,1452
2016-10-09T10:39:25.582Z,1352
2016-10-09T10:40:08.193Z,1324
2016-10-09T10:40:50.780Z,1304
2016-10-09T10:41:33.400Z,1244
2016-10-09T10:42:15.936Z,1264
2016-10-09T10:42:58.643Z,1260
2016-10-09T10:43:41.349Z,1228
2016-10-09T10:44:24.006Z,1196
2016-10-09T10:45:06.601Z,1192
2016-10-09T10:45:49.266Z,1088
2016-10-09T10:46:31.914Z,1164
2016-10-09T10:47:14.508Z,1200
2016-10-09T10:47:56.935Z,1360
2016-10-09T10:48:39.642Z,1352